sensor_id;sensor_type;location;lat;lon;timestamp;pressure;altitude;pressure_sealevel;temperature;humidity
22206;BME280;11272;50.104;8.754;2022-12-07T00:01:07;100769.78;;;5.23;80.32
22206;BME280;11272;50.104;8.754;2022-12-07T00:03:34;100769.78;;;5.23;80.46
22206;BME280;11272;50.104;8.754;2022-12-07T00:06:00;100775.03;;;5.20;80.10
22206;BME280;11272;50.104;8.754;2022-12-07T00:08:26;100782.94;;;5.18;80.71
22206;BME280;11272;50.104;8.754;2022-12-07T00:10:52;100778.53;;;5.19;80.33
22206;BME280;11272;50.104;8.754;2022-12-07T00:13:18;100775.91;;;5.20;80.49
22206;BME280;11272;50.104;8.754;2022-12-07T00:15:44;100775.91;;;5.20;80.51
22206;BME280;11272;50.104;8.754;2022-12-07T00:18:10;100768.03;;;5.22;80.65
22206;BME280;11272;50.104;8.754;2022-12-07T00:20:35;100763.66;;;5.22;80.61
22206;BME280;11272;50.104;8.754;2022-12-07T00:23:01;100767.16;;;5.24;81.08
22206;BME280;11272;50.104;8.754;2022-12-07T00:25:26;100758.38;;;5.25;80.53
22206;BME280;11272;50.104;8.754;2022-12-07T00:27:53;100749.63;;;5.26;80.46
22206;BME280;11272;50.104;8.754;2022-12-07T00:30:21;100753.13;;;5.27;80.50
22206;BME280;11272;50.104;8.754;2022-12-07T00:32:46;100751.38;;;5.26;80.79
22206;BME280;11272;50.104;8.754;2022-12-07T00:35:12;100747.00;;;5.26;80.58
22206;BME280;11272;50.104;8.754;2022-12-07T00:37:38;100739.94;;;5.24;80.94
22206;BME280;11272;50.104;8.754;2022-12-07T00:40:04;100737.31;;;5.24;80.52
22206;BME280;11272;50.104;8.754;2022-12-07T00:42:30;100737.31;;;5.22;80.47
22206;BME280;11272;50.104;8.754;2022-12-07T00:44:56;100731.19;;;5.22;80.48
22206;BME280;11272;50.104;8.754;2022-12-07T00:47:21;100730.28;;;5.20;80.48
22206;BME280;11272;50.104;8.754;2022-12-07T00:49:47;100728.53;;;5.17;80.35
22206;BME280;11272;50.104;8.754;2022-12-07T00:52:12;100736.44;;;5.17;80.37
22206;BME280;11272;50.104;8.754;2022-12-07T00:54:38;100725.00;;;5.17;80.63
22206;BME280;11272;50.104;8.754;2022-12-07T00:57:04;100727.66;;;5.17;80.41
22206;BME280;11272;50.104;8.754;2022-12-07T00:59:30;100736.41;;;5.16;80.38
22206;BME280;11272;50.104;8.754;2022-12-07T01:01:55;100735.53;;;5.17;80.81
22206;BME280;11272;50.104;8.754;2022-12-07T01:04:21;100730.28;;;5.17;80.88
22206;BME280;11272;50.104;8.754;2022-12-07T01:06:46;100725.00;;;5.17;80.43
22206;BME280;11272;50.104;8.754;2022-12-07T01:09:12;100724.13;;;5.16;80.57
22206;BME280;11272;50.104;8.754;2022-12-07T01:11:37;100733.78;;;5.16;80.75
22206;BME280;11272;50.104;8.754;2022-12-07T01:14:03;100729.41;;;5.16;80.70
22206;BME280;11272;50.104;8.754;2022-12-07T01:16:30;100725.00;;;5.20;81.13
22206;BME280;11272;50.104;8.754;2022-12-07T01:18:58;100732.03;;;5.21;81.16
22206;BME280;11272;50.104;8.754;2022-12-07T01:21:32;100722.38;;;5.20;80.92
22206;BME280;11272;50.104;8.754;2022-12-07T01:24:09;100713.63;;;5.21;81.33
22206;BME280;11272;50.104;8.754;2022-12-07T01:26:36;100709.25;;;5.18;80.98
22206;BME280;11272;50.104;8.754;2022-12-07T01:29:01;100711.81;;;5.14;80.72
22206;BME280;11272;50.104;8.754;2022-12-07T01:31:28;100714.47;;;5.12;80.71
22206;BME280;11272;50.104;8.754;2022-12-07T01:33:56;100714.44;;;5.09;80.60
22206;BME280;11272;50.104;8.754;2022-12-07T01:36:31;100710.03;;;5.05;80.86
22206;BME280;11272;50.104;8.754;2022-12-07T01:39:00;100719.66;;;5.03;80.89
22206;BME280;11272;50.104;8.754;2022-12-07T01:41:28;100730.19;;;5.01;81.05
22206;BME280;11272;50.104;8.754;2022-12-07T01:44:20;100724.03;;;4.99;81.40
22206;BME280;11272;50.104;8.754;2022-12-07T01:46:57;100731.03;;;4.99;80.89
22206;BME280;11272;50.104;8.754;2022-12-07T01:49:40;100728.41;;;4.97;80.82
22206;BME280;11272;50.104;8.754;2022-12-07T01:52:31;100726.66;;;4.96;81.38
22206;BME280;11272;50.104;8.754;2022-12-07T01:55:10;100728.41;;;4.97;81.13
22206;BME280;11272;50.104;8.754;2022-12-07T01:57:41;100731.03;;;4.99;81.39
22206;BME280;11272;50.104;8.754;2022-12-07T02:00:09;100728.44;;;5.00;81.67
22206;BME280;11272;50.104;8.754;2022-12-07T02:02:58;100732.81;;;5.01;81.87
22206;BME280;11272;50.104;8.754;2022-12-07T02:05:27;100716.13;;;4.99;81.47
22206;BME280;11272;50.104;8.754;2022-12-07T02:07:55;100720.53;;;5.00;81.60
22206;BME280;11272;50.104;8.754;2022-12-07T02:10:24;100711.75;;;5.03;81.67
22206;BME280;11272;50.104;8.754;2022-12-07T02:13:04;100708.25;;;5.04;81.08
22206;BME280;11272;50.104;8.754;2022-12-07T02:24:29;100704.75;;;5.03;81.66
22206;BME280;11272;50.104;8.754;2022-12-07T02:29:39;100692.44;;;4.98;81.27
22206;BME280;11272;50.104;8.754;2022-12-07T02:32:18;100687.19;;;4.96;81.37
22206;BME280;11272;50.104;8.754;2022-12-07T02:34:51;100691.56;;;4.94;81.72
22206;BME280;11272;50.104;8.754;2022-12-07T02:40:13;100679.22;;;4.87;81.79
22206;BME280;11272;50.104;8.754;2022-12-07T02:42:49;100678.34;;;4.87;81.39
22206;BME280;11272;50.104;8.754;2022-12-07T02:45:20;100685.34;;;4.86;81.65
22206;BME280;11272;50.104;8.754;2022-12-07T02:47:49;100677.47;;;4.83;81.71
22206;BME280;11272;50.104;8.754;2022-12-07T02:50:19;100688.84;;;4.82;82.04
22206;BME280;11272;50.104;8.754;2022-12-07T02:52:45;100682.72;;;4.83;81.97
22206;BME280;11272;50.104;8.754;2022-12-07T02:55:11;100679.25;;;4.86;82.56
22206;BME280;11272;50.104;8.754;2022-12-07T03:00:52;100688.91;;;4.94;82.50
22206;BME280;11272;50.104;8.754;2022-12-07T03:03:20;100688.06;;;4.95;82.62
22206;BME280;11272;50.104;8.754;2022-12-07T03:11:02;100680.19;;;5.01;82.86
22206;BME280;11272;50.104;8.754;2022-12-07T03:16:27;100683.72;;;5.02;82.49
22206;BME280;11272;50.104;8.754;2022-12-07T03:18:57;100678.44;;;5.03;82.46
22206;BME280;11272;50.104;8.754;2022-12-07T03:21:35;100681.06;;;5.03;82.40
22206;BME280;11272;50.104;8.754;2022-12-07T03:24:07;100681.09;;;5.05;82.74
22206;BME280;11272;50.104;8.754;2022-12-07T03:26:37;100677.59;;;5.06;83.02
22206;BME280;11272;50.104;8.754;2022-12-07T03:29:18;100681.97;;;5.08;83.09
22206;BME280;11272;50.104;8.754;2022-12-07T03:31:48;100682.00;;;5.12;83.06
22206;BME280;11272;50.104;8.754;2022-12-07T03:34:21;100680.22;;;5.14;83.17
22206;BME280;11272;50.104;8.754;2022-12-07T03:37:00;100674.13;;;5.16;82.63
22206;BME280;11272;50.104;8.754;2022-12-07T03:39:45;100667.09;;;5.17;82.81
22206;BME280;11272;50.104;8.754;2022-12-07T03:42:11;100668.84;;;5.16;83.09
22206;BME280;11272;50.104;8.754;2022-12-07T03:44:37;100664.47;;;5.17;83.11
22206;BME280;11272;50.104;8.754;2022-12-07T03:53:14;100659.16;;;5.09;82.58
22206;BME280;11272;50.104;8.754;2022-12-07T03:55:42;100658.28;;;5.08;82.65
22206;BME280;11272;50.104;8.754;2022-12-07T03:58:12;100660.94;;;5.10;82.62
22206;BME280;11272;50.104;8.754;2022-12-07T04:00:40;100649.56;;;5.13;83.04
22206;BME280;11272;50.104;8.754;2022-12-07T04:03:06;100645.16;;;5.15;83.06
22206;BME280;11272;50.104;8.754;2022-12-07T04:05:32;100644.28;;;5.17;82.56
22206;BME280;11272;50.104;8.754;2022-12-07T04:07:57;100651.31;;;5.18;82.91
22206;BME280;11272;50.104;8.754;2022-12-07T04:10:23;100652.19;;;5.17;82.98
22206;BME280;11272;50.104;8.754;2022-12-07T04:12:49;100648.69;;;5.17;82.56
22206;BME280;11272;50.104;8.754;2022-12-07T04:15:15;100650.44;;;5.18;82.38
22206;BME280;11272;50.104;8.754;2022-12-07T04:17:40;100648.69;;;5.17;82.41
22206;BME280;11272;50.104;8.754;2022-12-07T04:20:07;100648.69;;;5.17;82.85
22206;BME280;11272;50.104;8.754;2022-12-07T04:22:33;100641.66;;;5.16;82.56
22206;BME280;11272;50.104;8.754;2022-12-07T04:24:58;100646.03;;;5.15;82.61
22206;BME280;11272;50.104;8.754;2022-12-07T04:27:24;100650.44;;;5.16;82.37
22206;BME280;11272;50.104;8.754;2022-12-07T04:29:50;100658.31;;;5.16;82.31
22206;BME280;11272;50.104;8.754;2022-12-07T04:32:15;100653.06;;;5.21;82.40
22206;BME280;11272;50.104;8.754;2022-12-07T04:34:41;100653.94;;;5.20;82.54
22206;BME280;11272;50.104;8.754;2022-12-07T04:37:06;100653.06;;;5.21;82.82
22206;BME280;11272;50.104;8.754;2022-12-07T04:39:32;100657.47;;;5.22;82.76
22206;BME280;11272;50.104;8.754;2022-12-07T04:41:59;100662.72;;;5.25;82.65
22206;BME280;11272;50.104;8.754;2022-12-07T04:44:26;100654.84;;;5.26;82.70
22206;BME280;11272;50.104;8.754;2022-12-07T04:46:52;100652.22;;;5.29;82.68
22206;BME280;11272;50.104;8.754;2022-12-07T04:49:18;100646.97;;;5.31;82.52
22206;BME280;11272;50.104;8.754;2022-12-07T04:51:44;100645.22;;;5.31;82.75
22206;BME280;11272;50.104;8.754;2022-12-07T04:54:11;100642.59;;;5.31;82.34
22206;BME280;11272;50.104;8.754;2022-12-07T04:56:38;100647.88;;;5.33;82.59
22206;BME280;11272;50.104;8.754;2022-12-07T04:59:04;100643.47;;;5.32;82.37
22206;BME280;11272;50.104;8.754;2022-12-07T05:01:30;100641.72;;;5.34;82.64
22206;BME280;11272;50.104;8.754;2022-12-07T05:03:56;100643.47;;;5.33;82.40
22206;BME280;11272;50.104;8.754;2022-12-07T05:06:22;100641.72;;;5.34;82.53
22206;BME280;11272;50.104;8.754;2022-12-07T05:08:48;100639.06;;;5.35;82.63
22206;BME280;11272;50.104;8.754;2022-12-07T05:11:14;100639.06;;;5.35;82.13
22206;BME280;11272;50.104;8.754;2022-12-07T05:14:01;100634.69;;;5.33;82.03
22206;BME280;11272;50.104;8.754;2022-12-07T05:16:27;100638.19;;;5.29;82.13
22206;BME280;11272;50.104;8.754;2022-12-07T05:18:53;100639.03;;;5.25;81.99
22206;BME280;11272;50.104;8.754;2022-12-07T05:21:19;100644.31;;;5.22;81.87
22206;BME280;11272;50.104;8.754;2022-12-07T05:23:45;100647.78;;;5.19;82.31
22206;BME280;11272;50.104;8.754;2022-12-07T05:26:10;100642.53;;;5.21;82.01
22206;BME280;11272;50.104;8.754;2022-12-07T05:28:36;100649.56;;;5.22;82.33
22206;BME280;11272;50.104;8.754;2022-12-07T05:31:02;100644.31;;;5.25;82.47
22206;BME280;11272;50.104;8.754;2022-12-07T05:33:27;100646.06;;;5.26;82.65
22206;BME280;11272;50.104;8.754;2022-12-07T05:35:53;100646.97;;;5.28;82.35
22206;BME280;11272;50.104;8.754;2022-12-07T05:38:18;100652.22;;;5.31;82.24
22206;BME280;11272;50.104;8.754;2022-12-07T05:40:44;100644.34;;;5.34;82.46
22206;BME280;11272;50.104;8.754;2022-12-07T05:43:10;100639.97;;;5.37;82.58
22206;BME280;11272;50.104;8.754;2022-12-07T05:45:36;100639.09;;;5.38;82.53
22206;BME280;11272;50.104;8.754;2022-12-07T05:48:01;100639.97;;;5.39;82.47
22206;BME280;11272;50.104;8.754;2022-12-07T05:50:53;100637.34;;;5.40;82.41
22206;BME280;11272;50.104;8.754;2022-12-07T05:53:19;100645.22;;;5.40;82.45
22206;BME280;11272;50.104;8.754;2022-12-07T05:55:45;100643.50;;;5.39;82.52
22206;BME280;11272;50.104;8.754;2022-12-07T05:58:10;100640.88;;;5.39;82.17
22206;BME280;11272;50.104;8.754;2022-12-07T06:00:55;100637.34;;;5.40;82.37
22206;BME280;11272;50.104;8.754;2022-12-07T06:03:21;100639.09;;;5.41;82.41
22206;BME280;11272;50.104;8.754;2022-12-07T06:05:47;100640.00;;;5.43;82.28
22206;BME280;11272;50.104;8.754;2022-12-07T06:08:12;100637.34;;;5.46;82.59
22206;BME280;11272;50.104;8.754;2022-12-07T06:10:40;100639.09;;;5.46;82.69
22206;BME280;11272;50.104;8.754;2022-12-07T06:13:05;100641.75;;;5.46;82.41
22206;BME280;11272;50.104;8.754;2022-12-07T06:18:26;100639.97;;;5.42;82.63
22206;BME280;11272;50.104;8.754;2022-12-07T06:20:51;100633.84;;;5.41;82.62
22206;BME280;11272;50.104;8.754;2022-12-07T06:23:17;100638.22;;;5.42;82.69
22206;BME280;11272;50.104;8.754;2022-12-07T06:25:45;100639.13;;;5.44;82.72
22206;BME280;11272;50.104;8.754;2022-12-07T06:28:11;100639.13;;;5.44;82.69
22206;BME280;11272;50.104;8.754;2022-12-07T06:30:36;100649.66;;;5.44;82.30
22206;BME280;11272;50.104;8.754;2022-12-07T06:33:02;100635.59;;;5.44;82.69
22206;BME280;11272;50.104;8.754;2022-12-07T06:35:27;100647.00;;;5.43;82.47
22206;BME280;11272;50.104;8.754;2022-12-07T06:37:53;100647.00;;;5.46;82.75
22206;BME280;11272;50.104;8.754;2022-12-07T06:45:56;100635.59;;;5.41;82.30
22206;BME280;11272;50.104;8.754;2022-12-07T06:51:17;100641.72;;;5.40;82.71
22206;BME280;11272;50.104;8.754;2022-12-07T06:53:43;100637.34;;;5.40;82.87
22206;BME280;11272;50.104;8.754;2022-12-07T06:56:08;100645.25;;;5.39;82.49
22206;BME280;11272;50.104;8.754;2022-12-07T06:58:34;100654.88;;;5.40;82.53
22206;BME280;11272;50.104;8.754;2022-12-07T07:01:00;100652.25;;;5.40;82.82
22206;BME280;11272;50.104;8.754;2022-12-07T07:03:25;100651.38;;;5.41;82.59
22206;BME280;11272;50.104;8.754;2022-12-07T07:05:51;100660.16;;;5.41;82.99
22206;BME280;11272;50.104;8.754;2022-12-07T07:08:16;100652.25;;;5.40;82.61
22206;BME280;11272;50.104;8.754;2022-12-07T07:10:42;100655.78;;;5.42;83.13
22206;BME280;11272;50.104;8.754;2022-12-07T07:13:08;100661.03;;;5.42;82.67
22206;BME280;11272;50.104;8.754;2022-12-07T07:15:34;100661.03;;;5.42;83.15
22206;BME280;11272;50.104;8.754;2022-12-07T07:18:00;100656.69;;;5.44;82.94
22206;BME280;11272;50.104;8.754;2022-12-07T07:20:26;100661.03;;;5.45;83.32
22206;BME280;11272;50.104;8.754;2022-12-07T07:22:55;100677.72;;;5.45;82.89
22206;BME280;11272;50.104;8.754;2022-12-07T07:25:21;100670.69;;;5.46;82.89
22206;BME280;11272;50.104;8.754;2022-12-07T07:27:46;100666.31;;;5.46;83.28
22206;BME280;11272;50.104;8.754;2022-12-07T07:30:12;100673.34;;;5.47;83.04
22206;BME280;11272;50.104;8.754;2022-12-07T07:32:38;100668.09;;;5.49;82.87
22206;BME280;11272;50.104;8.754;2022-12-07T07:35:04;100663.69;;;5.51;83.06
22206;BME280;11272;50.104;8.754;2022-12-07T07:37:30;100670.75;;;5.54;83.37
22206;BME280;11272;50.104;8.754;2022-12-07T07:39:56;100669.00;;;5.54;83.00
22206;BME280;11272;50.104;8.754;2022-12-07T07:42:21;100661.94;;;5.51;83.25
22206;BME280;11272;50.104;8.754;2022-12-07T07:44:47;100669.88;;;5.50;82.87
22206;BME280;11272;50.104;8.754;2022-12-07T07:47:13;100669.84;;;5.48;82.79
22206;BME280;11272;50.104;8.754;2022-12-07T07:49:38;100667.19;;;5.47;83.19
22206;BME280;11272;50.104;8.754;2022-12-07T07:52:05;100669.84;;;5.47;82.90
22206;BME280;11272;50.104;8.754;2022-12-07T07:54:31;100664.59;;;5.50;83.44
22206;BME280;11272;50.104;8.754;2022-12-07T07:56:57;100663.72;;;5.53;83.36
22206;BME280;11272;50.104;8.754;2022-12-07T07:59:23;100659.34;;;5.59;83.24
22206;BME280;11272;50.104;8.754;2022-12-07T08:01:49;100668.09;;;5.61;83.26
22206;BME280;11272;50.104;8.754;2022-12-07T08:04:14;100673.38;;;5.61;83.09
22206;BME280;11272;50.104;8.754;2022-12-07T08:06:41;100669.00;;;5.59;82.73
22206;BME280;11272;50.104;8.754;2022-12-07T08:09:08;100671.66;;;5.60;83.25
22206;BME280;11272;50.104;8.754;2022-12-07T08:11:34;100666.38;;;5.63;82.95
22206;BME280;11272;50.104;8.754;2022-12-07T08:14:00;100674.28;;;5.66;83.41
22206;BME280;11272;50.104;8.754;2022-12-07T08:16:26;100661.13;;;5.69;83.19
22206;BME280;11272;50.104;8.754;2022-12-07T08:18:52;100670.78;;;5.75;83.26
22206;BME280;11272;50.104;8.754;2022-12-07T08:21:17;100668.16;;;5.84;83.55
22206;BME280;11272;50.104;8.754;2022-12-07T08:23:43;100672.63;;;5.93;83.56
22206;BME280;11272;50.104;8.754;2022-12-07T08:26:11;100668.22;;;6.01;83.41
22206;BME280;11272;50.104;8.754;2022-12-07T08:28:38;100668.25;;;6.08;83.41
22206;BME280;11272;50.104;8.754;2022-12-07T08:31:10;100671.75;;;6.18;83.27
22206;BME280;11272;50.104;8.754;2022-12-07T08:33:37;100675.28;;;6.24;82.88
22206;BME280;11272;50.104;8.754;2022-12-07T08:36:06;100679.66;;;6.28;82.92
22206;BME280;11272;50.104;8.754;2022-12-07T08:38:34;100675.25;;;6.37;82.86
22206;BME280;11272;50.104;8.754;2022-12-07T08:40:59;100675.25;;;6.44;83.12
22206;BME280;11272;50.104;8.754;2022-12-07T08:43:25;100674.34;;;6.54;82.90
22206;BME280;11272;50.104;8.754;2022-12-07T08:48:26;100676.03;;;6.92;82.83
22206;BME280;11272;50.104;8.754;2022-12-07T08:50:52;100683.97;;;6.92;81.77
22206;BME280;11272;50.104;8.754;2022-12-07T08:53:17;100680.47;;;6.84;81.47
22206;BME280;11272;50.104;8.754;2022-12-07T08:55:46;100682.25;;;6.72;80.81
22206;BME280;11272;50.104;8.754;2022-12-07T08:58:13;100681.38;;;6.64;80.91
22206;BME280;11272;50.104;8.754;2022-12-07T09:00:39;100686.66;;;6.55;80.89
22206;BME280;11272;50.104;8.754;2022-12-07T09:03:04;100686.66;;;6.55;81.33
22206;BME280;11272;50.104;8.754;2022-12-07T09:05:30;100676.97;;;6.63;81.77
22206;BME280;11272;50.104;8.754;2022-12-07T09:08:00;100677.88;;;6.67;81.26
22206;BME280;11272;50.104;8.754;2022-12-07T09:10:27;100676.03;;;6.90;81.91
22206;BME280;11272;50.104;8.754;2022-12-07T09:12:52;100677.66;;;7.35;81.91
22206;BME280;11272;50.104;8.754;2022-12-07T09:15:18;100670.56;;;7.37;81.59
22206;BME280;11272;50.104;8.754;2022-12-07T09:17:43;100680.31;;;7.29;80.58
22206;BME280;11272;50.104;8.754;2022-12-07T09:20:09;100670.69;;;7.21;80.54
22206;BME280;11272;50.104;8.754;2022-12-07T09:22:35;100676.81;;;7.24;80.48
22206;BME280;11272;50.104;8.754;2022-12-07T09:25:01;100676.34;;;8.03;82.74
22206;BME280;11272;50.104;8.754;2022-12-07T09:27:27;100670.97;;;9.10;83.56
22206;BME280;11272;50.104;8.754;2022-12-07T09:35:49;100669.69;;;12.28;79.04
22206;BME280;11272;50.104;8.754;2022-12-07T09:38:15;100658.09;;;12.97;76.75
22206;BME280;11272;50.104;8.754;2022-12-07T09:40:42;100661.94;;;13.19;74.01
22206;BME280;11272;50.104;8.754;2022-12-07T09:43:27;100661.13;;;13.46;72.55
22206;BME280;11272;50.104;8.754;2022-12-07T09:45:54;100667.16;;;13.82;70.49
22206;BME280;11272;50.104;8.754;2022-12-07T09:48:25;100666.97;;;13.30;68.24
22206;BME280;11272;50.104;8.754;2022-12-07T09:50:57;100660.63;;;13.01;68.84
22206;BME280;11272;50.104;8.754;2022-12-07T09:53:29;100661.63;;;13.59;68.36
22206;BME280;11272;50.104;8.754;2022-12-07T09:55:56;100653.69;;;13.85;66.32
22206;BME280;11272;50.104;8.754;2022-12-07T09:58:26;100650.66;;;13.68;64.36
22206;BME280;11272;50.104;8.754;2022-12-07T10:00:56;100646.78;;;13.51;62.43
22206;BME280;11272;50.104;8.754;2022-12-07T10:03:26;100645.97;;;13.47;62.63
22206;BME280;11272;50.104;8.754;2022-12-07T10:05:52;100643.91;;;13.86;62.09
22206;BME280;11272;50.104;8.754;2022-12-07T10:08:18;100638.56;;;13.86;60.38
22206;BME280;11272;50.104;8.754;2022-12-07T10:10:46;100638.47;;;13.30;59.03
22206;BME280;11272;50.104;8.754;2022-12-07T10:13:17;100633.66;;;12.81;59.22
22206;BME280;11272;50.104;8.754;2022-12-07T10:15:56;100636.81;;;12.61;59.74
22206;BME280;11272;50.104;8.754;2022-12-07T10:18:32;100647.25;;;12.71;59.41
22206;BME280;11272;50.104;8.754;2022-12-07T10:21:16;100635.31;;;12.17;58.47
22206;BME280;11272;50.104;8.754;2022-12-07T10:26:40;100640.91;;;12.07;59.79
22206;BME280;11272;50.104;8.754;2022-12-07T10:29:30;100627.75;;;12.01;59.42
22206;BME280;11272;50.104;8.754;2022-12-07T10:31:59;100630.06;;;11.77;58.78
22206;BME280;11272;50.104;8.754;2022-12-07T10:34:34;100622.47;;;11.59;59.27
22206;BME280;11272;50.104;8.754;2022-12-07T10:42:29;100630.50;;;11.58;59.44
22206;BME280;11272;50.104;8.754;2022-12-07T10:45:15;100624.75;;;11.37;59.44
22206;BME280;11272;50.104;8.754;2022-12-07T10:48:06;100626.38;;;11.02;59.73
22206;BME280;11272;50.104;8.754;2022-12-07T10:59:11;100619.75;;;10.30;61.03
22206;BME280;11272;50.104;8.754;2022-12-07T11:16:15;100609.56;;;10.03;60.03
22206;BME280;11272;50.104;8.754;2022-12-07T11:23:56;100603.31;;;10.05;59.78
22206;BME280;11272;50.104;8.754;2022-12-07T11:29:43;100590.50;;;9.80;59.47
22206;BME280;11272;50.104;8.754;2022-12-07T11:37:59;100580.47;;;9.40;60.01
22206;BME280;11272;50.104;8.754;2022-12-07T11:40:30;100573.59;;;9.27;60.32
22206;BME280;11272;50.104;8.754;2022-12-07T11:43:11;100577.22;;;9.21;60.55
22206;BME280;11272;50.104;8.754;2022-12-07T11:45:42;100572.88;;;9.17;60.94
22206;BME280;11272;50.104;8.754;2022-12-07T11:48:20;100574.63;;;9.17;61.18
22206;BME280;11272;50.104;8.754;2022-12-07T11:50:54;100574.66;;;9.15;61.03
22206;BME280;11272;50.104;8.754;2022-12-07T11:56:13;100564.03;;;9.18;61.04
22206;BME280;11272;50.104;8.754;2022-12-07T11:58:55;100560.59;;;9.10;61.07
22206;BME280;11272;50.104;8.754;2022-12-07T12:06:44;100550.81;;;9.15;61.36
22206;BME280;11272;50.104;8.754;2022-12-07T12:09:19;100551.59;;;9.23;61.52
22206;BME280;11272;50.104;8.754;2022-12-07T12:15:03;100538.66;;;10.60;60.56
22206;BME280;11272;50.104;8.754;2022-12-07T12:17:47;100535.03;;;10.64;59.03
22206;BME280;11272;50.104;8.754;2022-12-07T12:20:26;100532.66;;;10.50;59.34
22206;BME280;11272;50.104;8.754;2022-12-07T12:23:22;100527.66;;;10.35;58.69
22206;BME280;11272;50.104;8.754;2022-12-07T12:25:52;100536.72;;;10.22;59.08
22206;BME280;11272;50.104;8.754;2022-12-07T12:31:13;100520.50;;;9.88;58.76
22206;BME280;11272;50.104;8.754;2022-12-07T12:33:49;100522.47;;;9.77;58.89
22206;BME280;11272;50.104;8.754;2022-12-07T12:38:49;100518.75;;;9.34;58.96
22206;BME280;11272;50.104;8.754;2022-12-07T12:43:59;100521.69;;;9.14;59.29
22206;BME280;11272;50.104;8.754;2022-12-07T12:51:51;100515.41;;;9.21;59.32
22206;BME280;11272;50.104;8.754;2022-12-07T13:04:58;100500.63;;;9.03;60.44
22206;BME280;11272;50.104;8.754;2022-12-07T13:30:43;100504.94;;;9.13;59.57
22206;BME280;11272;50.104;8.754;2022-12-07T13:33:17;100505.69;;;9.21;60.34
22206;BME280;11272;50.104;8.754;2022-12-07T13:35:44;100501.56;;;9.59;60.84
22206;BME280;11272;50.104;8.754;2022-12-07T13:58:33;100498.63;;;9.20;61.21
22206;BME280;11272;50.104;8.754;2022-12-07T14:12:30;100496.56;;;8.78;61.74
22206;BME280;11272;50.104;8.754;2022-12-07T14:14:57;100498.41;;;8.74;61.66
22206;BME280;11272;50.104;8.754;2022-12-07T14:17:26;100501.94;;;8.72;61.57
22206;BME280;11272;50.104;8.754;2022-12-07T14:22:54;100495.00;;;8.65;61.61
22206;BME280;11272;50.104;8.754;2022-12-07T14:28:27;100496.09;;;8.47;62.26
22206;BME280;11272;50.104;8.754;2022-12-07T14:36:45;100503.28;;;8.34;62.59
22206;BME280;11272;50.104;8.754;2022-12-07T14:39:11;100498.06;;;8.27;62.80
22206;BME280;11272;50.104;8.754;2022-12-07T14:41:38;100498.97;;;8.23;62.54
22206;BME280;11272;50.104;8.754;2022-12-07T14:44:36;100495.47;;;8.21;62.86
22206;BME280;11272;50.104;8.754;2022-12-07T14:47:01;100490.22;;;8.18;62.94
22206;BME280;11272;50.104;8.754;2022-12-07T14:49:27;100484.97;;;8.15;62.85
22206;BME280;11272;50.104;8.754;2022-12-07T14:51:52;100485.84;;;8.12;62.92
22206;BME280;11272;50.104;8.754;2022-12-07T14:57:15;100497.41;;;8.07;62.95
22206;BME280;11272;50.104;8.754;2022-12-07T15:13:34;100497.88;;;7.55;64.36
22206;BME280;11272;50.104;8.754;2022-12-07T15:16:28;100495.34;;;7.41;64.64
22206;BME280;11272;50.104;8.754;2022-12-07T15:43:03;100488.72;;;6.75;67.01
22206;BME280;11272;50.104;8.754;2022-12-07T15:45:29;100487.84;;;6.78;67.51
22206;BME280;11272;50.104;8.754;2022-12-07T15:47:55;100475.50;;;6.80;67.93
22206;BME280;11272;50.104;8.754;2022-12-07T15:50:21;100471.09;;;6.80;68.25
22206;BME280;11272;50.104;8.754;2022-12-07T15:52:48;100473.75;;;6.78;68.23
22206;BME280;11272;50.104;8.754;2022-12-07T15:55:14;100473.75;;;6.78;68.18
22206;BME280;11272;50.104;8.754;2022-12-07T15:57:42;100464.06;;;6.79;68.74
22206;BME280;11272;50.104;8.754;2022-12-07T16:00:08;100459.69;;;6.78;68.82
22206;BME280;11272;50.104;8.754;2022-12-07T16:02:36;100467.59;;;6.80;69.16
22206;BME280;11272;50.104;8.754;2022-12-07T16:05:03;100464.94;;;6.81;69.53
22206;BME280;11272;50.104;8.754;2022-12-07T16:07:29;100460.53;;;6.82;69.36
22206;BME280;11272;50.104;8.754;2022-12-07T16:12:44;100459.72;;;6.69;69.62
22206;BME280;11272;50.104;8.754;2022-12-07T16:18:05;100446.59;;;6.58;70.44
22206;BME280;11272;50.104;8.754;2022-12-07T16:23:27;100446.63;;;6.57;70.84
22206;BME280;11272;50.104;8.754;2022-12-07T16:26:03;100444.84;;;6.59;70.96
22206;BME280;11272;50.104;8.754;2022-12-07T16:28:29;100456.25;;;6.62;71.11
22206;BME280;11272;50.104;8.754;2022-12-07T16:42:31;100443.09;;;6.53;71.55
22206;BME280;11272;50.104;8.754;2022-12-07T16:53:24;100440.47;;;6.53;72.29
22206;BME280;11272;50.104;8.754;2022-12-07T17:04:25;100442.22;;;6.56;72.63
22206;BME280;11272;50.104;8.754;2022-12-07T17:06:51;100441.34;;;6.57;72.50
22206;BME280;11272;50.104;8.754;2022-12-07T17:24:12;100428.22;;;6.45;72.90
22206;BME280;11272;50.104;8.754;2022-12-07T17:26:38;100429.09;;;6.45;72.90
22206;BME280;11272;50.104;8.754;2022-12-07T17:29:05;100431.72;;;6.45;72.90
22206;BME280;11272;50.104;8.754;2022-12-07T17:31:33;100427.28;;;6.47;72.97
22206;BME280;11272;50.104;8.754;2022-12-07T17:33:58;100436.97;;;6.48;73.08
22206;BME280;11272;50.104;8.754;2022-12-07T17:36:26;100439.59;;;6.48;73.45
22206;BME280;11272;50.104;8.754;2022-12-07T17:38:52;100430.81;;;6.48;73.38
22206;BME280;11272;50.104;8.754;2022-12-07T17:41:26;100432.59;;;6.44;73.16
22206;BME280;11272;50.104;8.754;2022-12-07T17:44:16;100424.69;;;6.43;73.40
22206;BME280;11272;50.104;8.754;2022-12-07T17:46:43;100429.13;;;6.41;73.19
22206;BME280;11272;50.104;8.754;2022-12-07T17:49:09;100421.19;;;6.38;73.16
22206;BME280;11272;50.104;8.754;2022-12-07T17:51:35;100415.03;;;6.37;73.61
22206;BME280;11272;50.104;8.754;2022-12-07T17:54:20;100413.28;;;6.36;73.38
22206;BME280;11272;50.104;8.754;2022-12-07T17:56:46;100408.00;;;6.36;73.47
22206;BME280;11272;50.104;8.754;2022-12-07T17:59:12;100405.38;;;6.36;73.47
22206;BME280;11272;50.104;8.754;2022-12-07T18:01:38;100407.16;;;6.36;73.62